createdAt,value
2019-06-10T00:01:41.481Z,20.40
2019-06-10T00:04:12.353Z,20.40
2019-06-10T00:06:42.241Z,20.40
2019-06-10T00:09:11.946Z,20.50
2019-06-10T00:11:41.554Z,20.60
2019-06-10T00:14:11.063Z,20.70
2019-06-10T00:16:41.645Z,20.70
2019-06-10T00:19:12.688Z,20.70
2019-06-10T00:21:42.272Z,20.60
2019-06-10T00:24:11.885Z,20.50
2019-06-10T00:26:41.446Z,20.40
2019-06-10T00:29:11.964Z,20.50
2019-06-10T00:31:41.802Z,20.40
2019-06-10T00:34:12.457Z,20.40
2019-06-10T00:36:42.322Z,20.40
2019-06-10T00:39:13.440Z,20.30
2019-06-10T00:41:43.180Z,20.20
2019-06-10T00:44:12.984Z,20.00
2019-06-10T00:46:42.401Z,19.90
2019-06-10T00:49:14.351Z,19.90
2019-06-10T00:51:42.766Z,19.90
2019-06-10T00:54:15.090Z,20.00
2019-06-10T00:56:43.223Z,20.10
2019-06-10T00:59:15.102Z,20.10
2019-06-10T01:01:43.619Z,20.10
2019-06-10T01:04:16.210Z,20.10
2019-06-10T01:06:45.028Z,20.10
2019-06-10T01:09:14.862Z,20.10
2019-06-10T01:11:44.567Z,20.10
2019-06-10T01:14:15.458Z,20.10
2019-06-10T01:19:47.076Z,20.00
2019-06-10T01:22:17.329Z,20.00
2019-06-10T01:24:46.776Z,19.90
2019-06-10T01:27:16.164Z,20.10
2019-06-10T01:29:45.507Z,20.10
2019-06-10T01:32:15.130Z,20.20
2019-06-10T01:34:44.508Z,20.20
2019-06-10T01:37:14.765Z,20.00
2019-06-10T01:39:44.926Z,20.10
2019-06-10T01:42:15.608Z,20.10
2019-06-10T01:44:45.282Z,20.10
2019-06-10T01:47:15.776Z,20.00
2019-06-10T01:49:45.619Z,20.00
2019-06-10T01:52:16.317Z,20.10
2019-06-10T01:54:46.018Z,19.90
2019-06-10T01:57:16.647Z,19.90
2019-06-10T01:59:46.434Z,19.90
2019-06-10T02:02:23.417Z,19.90
2019-06-10T02:04:51.819Z,19.90
2019-06-10T02:07:23.066Z,19.70
2019-06-10T02:09:52.635Z,19.80
2019-06-10T02:12:24.194Z,19.90
2019-06-10T02:14:53.095Z,20.00
2019-06-10T02:17:23.947Z,19.90
2019-06-10T02:19:53.504Z,19.90
2019-06-10T02:22:24.205Z,20.00
2019-06-10T02:24:53.912Z,19.90
2019-06-10T02:27:23.318Z,20.00
2019-06-10T02:29:53.670Z,20.00
2019-06-10T02:32:31.622Z,20.10
2019-06-10T02:35:07.311Z,20.00
2019-06-10T02:37:31.948Z,19.90
2019-06-10T02:39:57.206Z,19.70
2019-06-10T02:42:30.911Z,19.70
2019-06-10T02:45:03.309Z,19.50
2019-06-10T02:47:37.012Z,19.60
2019-06-10T02:50:07.802Z,19.70
2019-06-10T02:52:38.081Z,19.70
2019-06-10T02:55:05.494Z,19.70
2019-06-10T02:57:39.669Z,19.70
2019-06-10T03:00:19.850Z,19.70
2019-06-10T03:02:40.110Z,19.70
2019-06-10T03:05:14.279Z,19.60
2019-06-10T03:07:44.608Z,19.60
2019-06-10T03:10:16.076Z,19.60
2019-06-10T03:12:45.584Z,19.60
2019-06-10T03:15:15.723Z,19.70
2019-06-10T03:17:45.134Z,19.70
2019-06-10T03:20:14.439Z,19.60
2019-06-10T03:22:43.780Z,19.40
2019-06-10T03:25:13.266Z,19.40
2019-06-10T03:27:42.687Z,19.50
2019-06-10T03:30:17.133Z,19.60
2019-06-10T03:32:46.757Z,19.50
2019-06-10T03:35:14.936Z,19.50
2019-06-10T03:37:44.246Z,19.50
2019-06-10T03:40:13.903Z,19.70
2019-06-10T03:42:43.349Z,19.80
2019-06-10T03:45:13.019Z,19.70
2019-06-10T03:47:42.817Z,19.70
2019-06-10T03:50:13.254Z,19.40
2019-06-10T03:52:43.226Z,19.40
2019-06-10T03:55:13.060Z,19.40
2019-06-10T03:57:42.480Z,19.50
2019-06-10T04:00:13.991Z,19.60
2019-06-10T04:02:43.598Z,19.60
2019-06-10T04:05:13.372Z,19.60
2019-06-10T04:07:42.953Z,19.60
2019-06-10T04:10:12.935Z,19.40
2019-06-10T04:12:43.501Z,19.30
2019-06-10T04:15:13.354Z,19.40
2019-06-10T04:17:42.931Z,19.40
2019-06-10T04:20:15.438Z,19.50
2019-06-10T04:22:44.463Z,19.50
2019-06-10T04:25:14.198Z,19.50
2019-06-10T04:27:43.487Z,19.50
2019-06-10T04:30:16.336Z,19.60
2019-06-10T04:32:44.083Z,19.60
2019-06-10T04:35:13.406Z,19.70
2019-06-10T04:37:43.003Z,19.70
2019-06-10T04:40:32.924Z,19.50
2019-06-10T04:43:02.986Z,19.40
2019-06-10T04:45:32.565Z,19.40
2019-06-10T04:48:03.026Z,19.50
2019-06-10T04:50:41.939Z,19.50
2019-06-10T04:53:03.646Z,19.50
2019-06-10T04:55:32.977Z,19.40
2019-06-10T04:58:02.603Z,19.20
2019-06-10T05:00:33.276Z,19.30
2019-06-10T05:03:02.964Z,19.40
2019-06-10T05:05:32.923Z,19.60
2019-06-10T05:08:02.787Z,19.70
2019-06-10T05:10:33.256Z,19.90
2019-06-10T05:13:03.214Z,19.90
2019-06-10T05:15:34.882Z,19.80
2019-06-10T05:18:03.658Z,19.90
2019-06-10T05:20:51.124Z,19.80
2019-06-10T05:23:04.095Z,19.90
2019-06-10T05:25:33.383Z,19.70
2019-06-10T05:28:03.789Z,20.00
2019-06-10T05:30:34.066Z,20.20
2019-06-10T05:33:03.641Z,20.30
2019-06-10T05:35:33.962Z,20.30
2019-06-10T05:38:03.694Z,20.30
2019-06-10T05:40:34.291Z,20.10
2019-06-10T05:43:03.905Z,19.90
2019-06-10T05:45:35.075Z,20.00
2019-06-10T05:48:04.405Z,20.10
2019-06-10T05:50:35.015Z,20.10
2019-06-10T05:53:04.580Z,20.10
2019-06-10T05:55:35.180Z,20.00
2019-06-10T05:58:05.902Z,20.00
2019-06-10T06:00:35.589Z,20.10
2019-06-10T06:03:05.086Z,20.20
2019-06-10T06:05:36.088Z,20.30
2019-06-10T06:08:12.573Z,20.50
2019-06-10T06:10:43.048Z,20.50
2019-06-10T06:13:12.837Z,20.40
2019-06-10T06:15:43.366Z,20.40
2019-06-10T06:18:14.119Z,20.30
2019-06-10T06:20:43.761Z,20.40
2019-06-10T06:23:13.293Z,20.60
2019-06-10T06:25:46.290Z,20.70
2019-06-10T06:28:16.172Z,20.70
2019-06-10T06:30:44.973Z,20.60
2019-06-10T06:33:14.306Z,20.60
2019-06-10T06:35:46.576Z,20.70
2019-06-10T06:38:14.751Z,20.70
2019-06-10T06:40:45.025Z,20.90
2019-06-10T06:43:14.547Z,21.00
2019-06-10T06:45:43.911Z,20.90
2019-06-10T06:48:13.209Z,20.90
2019-06-10T06:51:00.137Z,20.70
2019-06-10T06:53:25.632Z,20.40
2019-06-10T06:55:44.815Z,20.30
2019-06-10T06:58:14.170Z,20.20
2019-06-10T07:01:00.485Z,20.20
2019-06-10T07:03:14.492Z,20.30
2019-06-10T07:05:45.450Z,20.50
2019-06-10T07:08:16.915Z,20.70
2019-06-10T07:10:47.436Z,20.80
2019-06-10T07:13:16.837Z,20.60
2019-06-10T07:15:47.553Z,20.80
2019-06-10T07:18:17.031Z,20.80
2019-06-10T07:20:46.358Z,21.00
2019-06-10T07:23:15.954Z,21.10
2019-06-10T07:25:47.537Z,21.10
2019-06-10T07:28:18.184Z,21.00
2019-06-10T07:30:52.745Z,21.00
2019-06-10T07:33:18.606Z,20.80
2019-06-10T07:36:03.186Z,21.00
2019-06-10T07:38:34.723Z,21.00
2019-06-10T07:41:02.963Z,20.90
2019-06-10T07:43:37.123Z,20.90
2019-06-10T07:46:03.962Z,21.00
2019-06-10T07:48:35.012Z,21.00
2019-06-10T07:51:05.363Z,21.00
2019-06-10T07:53:36.543Z,21.20
2019-06-10T07:56:05.755Z,21.10
2019-06-10T07:58:37.219Z,21.30
2019-06-10T08:01:07.219Z,21.20
2019-06-10T08:03:55.459Z,21.20
2019-06-10T08:06:24.870Z,21.20
2019-06-10T08:08:55.703Z,21.30
2019-06-10T08:11:25.019Z,21.50
2019-06-10T08:13:54.336Z,21.60
2019-06-10T08:16:23.916Z,21.70
2019-06-10T08:19:20.918Z,21.90
2019-06-10T08:21:24.297Z,22.10
2019-06-10T08:23:56.754Z,21.90
2019-06-10T08:26:26.299Z,21.80
2019-06-10T08:28:55.670Z,21.70
2019-06-10T08:31:26.095Z,21.70
2019-06-10T08:33:55.439Z,21.70
2019-06-10T08:36:24.927Z,21.50
2019-06-10T08:38:54.245Z,21.70
2019-06-10T08:41:24.717Z,21.50
2019-06-10T08:43:54.136Z,21.70
2019-06-10T08:46:23.555Z,22.00
2019-06-10T08:48:52.890Z,22.20
2019-06-10T08:51:23.890Z,22.40
2019-06-10T08:53:53.441Z,22.10
2019-06-10T08:56:24.306Z,21.50
2019-06-10T08:58:54.097Z,21.70
2019-06-10T09:01:24.842Z,21.80
2019-06-10T09:03:54.234Z,22.00
2019-06-10T09:06:23.690Z,22.10
2019-06-10T09:08:54.655Z,22.20
2019-06-10T09:11:24.480Z,22.40
2019-06-10T09:13:53.801Z,22.40
2019-06-10T09:16:23.436Z,22.40
2019-06-10T09:18:55.298Z,22.40
2019-06-10T09:21:25.294Z,22.40
2019-06-10T09:23:59.735Z,22.60
2019-06-10T09:26:25.747Z,22.70
2019-06-10T09:28:56.610Z,22.50
2019-06-10T09:31:27.126Z,22.60
2019-06-10T09:33:57.160Z,22.70
2019-06-10T09:36:26.683Z,23.00
2019-06-10T09:38:56.013Z,22.90
2019-06-10T09:41:36.285Z,22.80
2019-06-10T09:43:58.467Z,22.90
2019-06-10T09:46:33.131Z,22.50
2019-06-10T09:49:03.082Z,21.80
2019-06-10T09:51:32.640Z,22.10
2019-06-10T09:54:06.583Z,22.30
2019-06-10T09:56:36.091Z,22.10
2019-06-10T09:59:05.953Z,22.30
2019-06-10T10:01:35.314Z,22.50
2019-06-10T10:04:05.191Z,22.40
2019-06-10T10:06:34.634Z,22.30
2019-06-10T10:09:05.759Z,22.40
2019-06-10T10:11:35.186Z,22.20
2019-06-10T10:14:08.386Z,22.20
2019-06-10T10:16:35.887Z,22.30
2019-06-10T10:19:05.647Z,22.50
2019-06-10T10:21:35.155Z,22.80
2019-06-10T10:24:10.524Z,23.00
2019-06-10T10:26:35.903Z,23.10
2019-06-10T10:29:05.423Z,23.00
2019-06-10T10:31:34.797Z,22.80
2019-06-10T10:34:04.119Z,23.10
2019-06-10T10:36:34.453Z,23.30
2019-06-10T10:39:05.313Z,23.40
2019-06-10T10:41:35.883Z,23.30
2019-06-10T10:44:06.012Z,23.20
2019-06-10T10:46:35.415Z,22.90
2019-06-10T10:49:04.871Z,22.70
2019-06-10T10:51:34.755Z,23.00
2019-06-10T10:54:21.197Z,23.00
2019-06-10T10:56:35.663Z,23.30
2019-06-10T10:59:04.969Z,23.50
2019-06-10T11:01:34.824Z,23.60
2019-06-10T11:04:05.085Z,23.50
2019-06-10T11:06:34.438Z,23.60
2019-06-10T11:09:05.454Z,24.20
2019-06-10T11:11:36.396Z,24.50
2019-06-10T11:14:05.831Z,25.00
2019-06-10T11:16:35.255Z,24.90
2019-06-10T11:19:04.780Z,25.00
2019-06-10T11:21:34.116Z,25.40
2019-06-10T11:24:04.829Z,25.60
2019-06-10T11:26:34.279Z,25.70
2019-06-10T11:29:03.846Z,25.80
2019-06-10T11:31:33.158Z,26.30
2019-06-10T11:34:03.182Z,26.30
2019-06-10T11:36:32.837Z,25.70
2019-06-10T11:39:02.944Z,26.10
2019-06-10T11:41:33.675Z,26.20
2019-06-10T11:44:03.078Z,26.40
2019-06-10T11:46:33.193Z,25.40
2019-06-10T11:49:03.874Z,25.50
2019-06-10T11:51:33.516Z,25.10
2019-06-10T11:54:03.426Z,25.00
2019-06-10T11:56:33.739Z,24.90
2019-06-10T11:59:08.921Z,24.70
2019-06-10T12:01:34.244Z,24.80
2019-06-10T12:04:04.288Z,24.80
2019-06-10T12:06:34.138Z,24.80
2019-06-10T12:09:06.688Z,24.80
2019-06-10T12:11:37.243Z,24.80
2019-06-10T12:14:07.195Z,24.60
2019-06-10T12:17:17.490Z,24.70
2019-06-10T12:19:07.595Z,24.50
2019-06-10T12:21:36.910Z,24.00
2019-06-10T12:24:07.711Z,24.10
2019-06-10T12:26:37.093Z,24.20
2019-06-10T12:29:06.536Z,24.40
2019-06-10T12:31:35.971Z,24.80
2019-06-10T12:34:06.077Z,24.60
2019-06-10T12:36:35.774Z,24.60
2019-06-10T12:39:10.942Z,24.30
2019-06-10T12:41:39.058Z,24.20
2019-06-10T12:44:08.580Z,23.80
2019-06-10T12:46:37.898Z,23.80
2019-06-10T12:49:08.772Z,24.00
2019-06-10T12:51:38.444Z,24.20
2019-06-10T12:54:09.017Z,23.50
2019-06-10T12:56:38.398Z,23.50
2019-06-10T12:59:10.007Z,23.90
2019-06-10T13:01:39.024Z,23.90
2019-06-10T13:04:09.588Z,24.20
2019-06-10T13:06:40.338Z,24.30
2019-06-10T13:09:09.819Z,24.50
2019-06-10T13:11:39.238Z,24.60
2019-06-10T13:14:08.682Z,24.10
2019-06-10T13:16:39.139Z,24.10
2019-06-10T13:19:08.449Z,24.20
2019-06-10T13:21:37.870Z,24.00
2019-06-10T13:24:07.886Z,24.00
2019-06-10T13:26:37.429Z,24.00
2019-06-10T13:29:10.040Z,23.90
2019-06-10T13:31:37.893Z,23.90
2019-06-10T13:34:11.317Z,23.40
2019-06-10T13:36:39.594Z,23.30
2019-06-10T13:39:10.475Z,23.20
2019-06-10T13:41:40.070Z,23.40
2019-06-10T13:44:09.377Z,23.40
2019-06-10T13:46:38.696Z,23.50
2019-06-10T13:49:10.734Z,23.30
2019-06-10T13:51:39.371Z,23.30
2019-06-10T13:54:09.642Z,23.00
2019-06-10T13:56:46.970Z,23.20
2019-06-10T13:59:11.858Z,23.10
2019-06-10T14:01:42.786Z,23.00
2019-06-10T14:04:21.225Z,22.80
2019-06-10T14:06:49.801Z,22.90
2019-06-10T14:09:16.604Z,23.00
2019-06-10T14:11:45.882Z,22.90
2019-06-10T14:14:18.137Z,22.90
2019-06-10T14:16:46.281Z,23.00
2019-06-10T14:19:16.321Z,23.30
2019-06-10T14:21:45.900Z,23.40
2019-06-10T14:24:16.104Z,23.60
2019-06-10T14:26:45.953Z,23.40
2019-06-10T14:29:16.004Z,23.40
2019-06-10T14:31:47.976Z,23.30
2019-06-10T14:34:18.662Z,23.50
2019-06-10T14:36:49.443Z,23.60
2019-06-10T14:39:21.993Z,23.20
2019-06-10T14:41:52.273Z,23.20
2019-06-10T14:44:23.475Z,23.20
2019-06-10T14:46:53.104Z,23.10
2019-06-10T14:49:22.575Z,23.10
2019-06-10T14:51:53.837Z,22.90
2019-06-10T14:54:24.334Z,22.90
2019-06-10T14:56:57.278Z,23.00
2019-06-10T14:59:24.883Z,23.00
2019-06-10T15:01:54.242Z,23.10
2019-06-10T15:04:23.597Z,23.00
2019-06-10T15:06:53.755Z,23.00
2019-06-10T15:09:23.412Z,23.00
2019-06-10T15:11:53.768Z,22.90
2019-06-10T15:14:23.441Z,22.80
2019-06-10T15:16:53.394Z,22.80
2019-06-10T15:19:28.571Z,22.50
2019-06-10T15:21:55.265Z,22.30
2019-06-10T15:24:24.594Z,22.30
2019-06-10T15:27:08.879Z,22.30
2019-06-10T15:29:26.987Z,22.30
2019-06-10T15:32:09.290Z,22.50
2019-06-10T15:34:27.317Z,22.50
2019-06-10T15:36:56.695Z,22.60
2019-06-10T15:39:26.010Z,22.40
2019-06-10T15:41:55.442Z,22.50
2019-06-10T15:44:47.947Z,22.50
2019-06-10T15:46:55.828Z,22.60
2019-06-10T15:49:26.220Z,22.30
2019-06-10T15:51:55.641Z,22.10
2019-06-10T15:54:25.511Z,22.30
2019-06-10T15:56:56.707Z,22.30
2019-06-10T15:59:26.161Z,22.20
2019-06-10T16:01:55.733Z,22.30
2019-06-10T16:04:26.440Z,22.10
2019-06-10T16:07:08.534Z,22.30
2019-06-10T16:09:38.075Z,22.60
2019-06-10T16:12:07.499Z,22.80
2019-06-10T16:14:36.943Z,23.00
2019-06-10T16:17:06.391Z,23.10
2019-06-10T16:19:36.732Z,23.00
2019-06-10T16:22:06.150Z,22.80
2019-06-10T16:24:35.863Z,22.90
2019-06-10T16:27:05.261Z,22.80
2019-06-10T16:29:34.563Z,22.70
2019-06-10T16:32:03.868Z,22.70
2019-06-10T16:34:33.216Z,22.90
2019-06-10T16:37:02.543Z,22.60
2019-06-10T16:39:32.587Z,22.70
2019-06-10T16:42:03.039Z,22.70
2019-06-10T16:44:33.061Z,22.70
2019-06-10T16:47:03.275Z,22.80
2019-06-10T16:49:33.038Z,22.70
2019-06-10T16:52:03.015Z,22.60
2019-06-10T16:54:33.141Z,22.70
2019-06-10T16:57:03.742Z,22.70
2019-06-10T16:59:33.669Z,22.70
2019-06-10T17:02:03.078Z,22.50
2019-06-10T17:04:33.143Z,22.50
2019-06-10T17:07:02.636Z,22.50
2019-06-10T17:09:32.815Z,22.60
2019-06-10T17:12:02.467Z,22.60
2019-06-10T17:14:33.568Z,22.60
2019-06-10T17:17:03.651Z,22.60
2019-06-10T17:19:33.509Z,22.60
2019-06-10T17:22:02.959Z,22.40
2019-06-10T17:24:33.852Z,22.30
2019-06-10T17:27:03.601Z,22.30
2019-06-10T17:29:34.691Z,22.30
2019-06-10T17:32:06.802Z,22.30
2019-06-10T17:34:36.128Z,22.20
2019-06-10T17:37:05.594Z,22.20
2019-06-10T17:39:34.942Z,22.10
2019-06-10T17:42:04.610Z,22.20
2019-06-10T17:44:34.060Z,22.10
2019-06-10T17:47:03.594Z,22.10
2019-06-10T17:49:34.708Z,22.20
2019-06-10T17:52:04.300Z,22.20
2019-06-10T17:54:33.716Z,22.40
2019-06-10T17:57:03.178Z,22.20
2019-06-10T17:59:35.327Z,22.30
2019-06-10T18:02:04.520Z,22.20
2019-06-10T18:04:33.964Z,22.20
2019-06-10T18:07:03.321Z,22.00
2019-06-10T18:09:35.416Z,22.00
2019-06-10T18:12:03.875Z,22.00
2019-06-10T18:14:35.823Z,21.90
2019-06-10T18:17:04.596Z,21.90
2019-06-10T18:19:37.055Z,21.90
2019-06-10T18:22:05.196Z,21.90
2019-06-10T18:24:34.828Z,21.90
2019-06-10T18:27:04.358Z,21.40
2019-06-10T18:29:35.797Z,21.40
2019-06-10T18:32:04.760Z,21.60
2019-06-10T18:34:36.220Z,21.70
2019-06-10T18:37:05.106Z,21.70
2019-06-10T18:39:35.430Z,21.60
2019-06-10T18:42:05.093Z,21.50
2019-06-10T18:44:35.812Z,21.50
2019-06-10T18:47:05.555Z,21.60
2019-06-10T18:49:36.207Z,21.70
2019-06-10T18:52:05.912Z,21.70
2019-06-10T18:54:36.997Z,21.70
2019-06-10T18:57:06.474Z,21.70
2019-06-10T18:59:36.688Z,21.80
2019-06-10T19:02:06.950Z,21.60
2019-06-10T19:04:38.187Z,21.50
2019-06-10T19:07:07.515Z,21.40
2019-06-10T19:09:39.174Z,21.50
2019-06-10T19:12:08.205Z,21.60
2019-06-10T19:14:38.316Z,21.60
2019-06-10T19:17:07.877Z,21.50
2019-06-10T19:19:38.225Z,21.60
2019-06-10T19:22:09.351Z,21.60
2019-06-10T19:24:40.134Z,21.80
2019-06-10T19:27:09.991Z,21.70
2019-06-10T19:29:47.029Z,21.70
2019-06-10T19:32:12.573Z,21.70
2019-06-10T19:34:47.247Z,21.60
2019-06-10T19:37:12.931Z,21.60
2019-06-10T19:39:49.390Z,21.60
2019-06-10T19:42:15.809Z,21.70
2019-06-10T19:44:46.032Z,21.70
2019-06-10T19:47:15.559Z,21.80
2019-06-10T19:49:45.081Z,21.70
2019-06-10T19:52:14.582Z,21.70
2019-06-10T19:54:45.413Z,21.60
2019-06-10T19:57:14.973Z,21.50
2019-06-10T20:00:03.789Z,21.30
2019-06-10T20:02:15.535Z,21.40
2019-06-10T20:04:45.666Z,21.50
2019-06-10T20:07:16.159Z,21.50
2019-06-10T20:09:46.358Z,21.50
2019-06-10T20:12:15.830Z,21.60
2019-06-10T20:14:46.085Z,21.60
2019-06-10T20:17:16.193Z,21.40
2019-06-10T20:19:45.996Z,21.30
2019-06-10T20:22:15.481Z,21.20
2019-06-10T20:24:46.708Z,21.10
2019-06-10T20:27:16.019Z,21.10
2019-06-10T20:29:45.802Z,21.00
2019-06-10T20:32:15.137Z,21.00
2019-06-10T20:34:44.728Z,20.90
2019-06-10T20:37:14.032Z,20.80
2019-06-10T20:39:46.028Z,20.90
2019-06-10T20:42:14.516Z,20.80
2019-06-10T20:44:45.918Z,20.60
2019-06-10T20:47:15.997Z,20.60
2019-06-10T20:49:47.483Z,20.50
2019-06-10T20:52:16.642Z,20.50
2019-06-10T20:54:47.874Z,20.70
2019-06-10T20:57:18.332Z,20.50
2019-06-10T20:59:48.559Z,20.40
2019-06-10T21:02:18.698Z,20.40
2019-06-10T21:04:48.525Z,20.50
2019-06-10T21:07:23.157Z,20.40
2019-06-10T21:09:54.185Z,20.40
2019-06-10T21:12:23.570Z,20.40
2019-06-10T21:14:53.275Z,20.40
2019-06-10T21:17:22.942Z,20.30
2019-06-10T21:19:53.697Z,20.30
2019-06-10T21:22:23.340Z,20.30
2019-06-10T21:24:53.576Z,20.30
2019-06-10T21:27:24.103Z,20.40
2019-06-10T21:29:54.762Z,20.50
2019-06-10T21:32:24.281Z,20.50
2019-06-10T21:34:53.968Z,20.50
2019-06-10T21:37:24.391Z,20.20
2019-06-10T21:39:55.386Z,20.10
2019-06-10T21:42:24.707Z,20.10
2019-06-10T21:44:54.039Z,19.70
2019-06-10T21:47:23.567Z,19.30
2019-06-10T21:49:54.489Z,19.10
2019-06-10T21:52:23.934Z,19.20
2019-06-10T21:54:53.274Z,19.30
2019-06-10T21:57:22.601Z,19.40
2019-06-10T21:59:54.977Z,19.40
2019-06-10T22:02:23.247Z,19.60
2019-06-10T22:04:55.182Z,19.70
2019-06-10T22:07:24.347Z,19.70
2019-06-10T22:09:56.090Z,19.80
2019-06-10T22:12:25.751Z,19.80
2019-06-10T22:14:55.123Z,19.70
2019-06-10T22:17:24.424Z,19.80
2019-06-10T22:19:56.483Z,19.90
2019-06-10T22:22:25.881Z,20.10
2019-06-10T22:24:56.545Z,20.00
2019-06-10T22:27:26.072Z,20.10
2019-06-10T22:29:57.098Z,20.10
2019-06-10T22:32:26.555Z,20.10
2019-06-10T22:34:57.136Z,20.00
2019-06-10T22:37:26.698Z,20.10
2019-06-10T22:39:57.863Z,20.00
2019-06-10T22:42:27.317Z,20.10
2019-06-10T22:44:57.988Z,20.10
2019-06-10T22:47:27.575Z,20.20
2019-06-10T22:49:58.433Z,20.10
2019-06-10T22:52:28.558Z,20.20
2019-06-10T22:54:58.736Z,20.30
2019-06-10T22:57:28.402Z,20.30
2019-06-10T22:59:59.287Z,20.30
2019-06-10T23:02:28.762Z,20.30
2019-06-10T23:04:59.896Z,20.30
2019-06-10T23:07:29.186Z,20.10
2019-06-10T23:09:59.060Z,19.90
2019-06-10T23:12:28.470Z,19.90
2019-06-10T23:14:58.098Z,19.80
2019-06-10T23:17:28.982Z,19.90
2019-06-10T23:19:59.639Z,19.80
2019-06-10T23:22:29.172Z,19.60
2019-06-10T23:24:59.819Z,19.70
2019-06-10T23:27:30.155Z,19.80
2019-06-10T23:30:00.847Z,19.80
2019-06-10T23:32:32.706Z,19.90
2019-06-10T23:35:02.591Z,19.70
2019-06-10T23:37:32.236Z,19.60
2019-06-10T23:40:03.933Z,19.60
2019-06-10T23:42:32.764Z,19.60
2019-06-10T23:45:04.850Z,19.60
2019-06-10T23:47:33.108Z,19.70
2019-06-10T23:50:04.342Z,19.50
2019-06-10T23:52:33.589Z,19.50
2019-06-10T23:55:04.613Z,19.40
2019-06-10T23:57:34.035Z,19.30
